sensor_id;sensor_type;location;lat;lon;timestamp;P1;durP1;ratioP1;P2;durP2;ratioP2
18138;SDS011;9195;53.176;9.486;2022-08-30T00:00:33;11.93;;;11.43;;
18138;SDS011;9195;53.176;9.486;2022-08-30T00:03:18;11.80;;;11.30;;
18138;SDS011;9195;53.176;9.486;2022-08-30T00:05:44;11.83;;;11.33;;
18138;SDS011;9195;53.176;9.486;2022-08-30T00:08:10;11.87;;;11.37;;
18138;SDS011;9195;53.176;9.486;2022-08-30T00:10:37;11.87;;;11.37;;
18138;SDS011;9195;53.176;9.486;2022-08-30T00:13:03;11.90;;;11.40;;
18138;SDS011;9195;53.176;9.486;2022-08-30T00:15:30;11.90;;;11.40;;
18138;SDS011;9195;53.176;9.486;2022-08-30T00:17:56;11.93;;;11.43;;
18138;SDS011;9195;53.176;9.486;2022-08-30T00:20:24;11.70;;;11.20;;
18138;SDS011;9195;53.176;9.486;2022-08-30T00:22:52;11.80;;;11.30;;
18138;SDS011;9195;53.176;9.486;2022-08-30T00:25:18;12.47;;;11.97;;
18138;SDS011;9195;53.176;9.486;2022-08-30T00:27:44;12.03;;;11.53;;
18138;SDS011;9195;53.176;9.486;2022-08-30T00:30:10;12.23;;;11.73;;
18138;SDS011;9195;53.176;9.486;2022-08-30T00:32:38;12.33;;;11.83;;
18138;SDS011;9195;53.176;9.486;2022-08-30T00:35:06;12.17;;;11.67;;
18138;SDS011;9195;53.176;9.486;2022-08-30T00:37:33;12.03;;;11.53;;
18138;SDS011;9195;53.176;9.486;2022-08-30T00:39:58;11.77;;;11.27;;
18138;SDS011;9195;53.176;9.486;2022-08-30T00:42:24;11.90;;;11.40;;
18138;SDS011;9195;53.176;9.486;2022-08-30T00:44:50;12.00;;;11.50;;
18138;SDS011;9195;53.176;9.486;2022-08-30T00:47:16;12.10;;;11.60;;
18138;SDS011;9195;53.176;9.486;2022-08-30T00:49:44;12.07;;;11.57;;
18138;SDS011;9195;53.176;9.486;2022-08-30T00:52:12;12.20;;;11.70;;
18138;SDS011;9195;53.176;9.486;2022-08-30T00:54:38;12.27;;;11.77;;
18138;SDS011;9195;53.176;9.486;2022-08-30T00:57:07;12.23;;;11.73;;
18138;SDS011;9195;53.176;9.486;2022-08-30T00:59:34;12.03;;;11.53;;
18138;SDS011;9195;53.176;9.486;2022-08-30T01:02:01;11.70;;;11.20;;
18138;SDS011;9195;53.176;9.486;2022-08-30T01:04:27;12.00;;;11.50;;
18138;SDS011;9195;53.176;9.486;2022-08-30T01:06:53;12.03;;;11.53;;
18138;SDS011;9195;53.176;9.486;2022-08-30T01:09:20;12.10;;;11.60;;
18138;SDS011;9195;53.176;9.486;2022-08-30T01:11:46;11.93;;;11.43;;
18138;SDS011;9195;53.176;9.486;2022-08-30T01:14:12;12.17;;;11.67;;
18138;SDS011;9195;53.176;9.486;2022-08-30T01:16:39;12.13;;;11.63;;
18138;SDS011;9195;53.176;9.486;2022-08-30T01:19:09;12.07;;;11.57;;
18138;SDS011;9195;53.176;9.486;2022-08-30T01:21:45;12.10;;;11.60;;
18138;SDS011;9195;53.176;9.486;2022-08-30T01:24:18;11.70;;;11.20;;
18138;SDS011;9195;53.176;9.486;2022-08-30T01:26:44;12.23;;;11.73;;
18138;SDS011;9195;53.176;9.486;2022-08-30T01:29:12;11.87;;;11.37;;
18138;SDS011;9195;53.176;9.486;2022-08-30T01:31:41;12.37;;;11.87;;
18138;SDS011;9195;53.176;9.486;2022-08-30T01:34:07;11.97;;;11.47;;
18138;SDS011;9195;53.176;9.486;2022-08-30T01:36:34;11.90;;;11.40;;
18138;SDS011;9195;53.176;9.486;2022-08-30T01:39:02;12.37;;;11.87;;
18138;SDS011;9195;53.176;9.486;2022-08-30T01:41:30;12.07;;;11.57;;
18138;SDS011;9195;53.176;9.486;2022-08-30T01:43:59;11.67;;;11.17;;
18138;SDS011;9195;53.176;9.486;2022-08-30T01:46:32;11.90;;;11.40;;
18138;SDS011;9195;53.176;9.486;2022-08-30T01:49:01;11.50;;;11.00;;
18138;SDS011;9195;53.176;9.486;2022-08-30T01:51:29;12.40;;;11.90;;
18138;SDS011;9195;53.176;9.486;2022-08-30T01:53:55;12.00;;;11.50;;
18138;SDS011;9195;53.176;9.486;2022-08-30T01:56:22;12.10;;;11.60;;
18138;SDS011;9195;53.176;9.486;2022-08-30T01:58:48;11.90;;;11.40;;
18138;SDS011;9195;53.176;9.486;2022-08-30T02:01:14;11.87;;;11.37;;
18138;SDS011;9195;53.176;9.486;2022-08-30T02:03:42;12.20;;;11.70;;
18138;SDS011;9195;53.176;9.486;2022-08-30T02:06:10;12.37;;;11.87;;
18138;SDS011;9195;53.176;9.486;2022-08-30T02:08:38;12.30;;;11.80;;
18138;SDS011;9195;53.176;9.486;2022-08-30T02:11:04;12.30;;;11.80;;
18138;SDS011;9195;53.176;9.486;2022-08-30T02:13:31;12.43;;;11.93;;
18138;SDS011;9195;53.176;9.486;2022-08-30T02:15:57;12.33;;;11.83;;
18138;SDS011;9195;53.176;9.486;2022-08-30T02:18:24;12.13;;;11.63;;
18138;SDS011;9195;53.176;9.486;2022-08-30T02:20:50;11.97;;;11.47;;
18138;SDS011;9195;53.176;9.486;2022-08-30T02:23:16;11.87;;;11.37;;
18138;SDS011;9195;53.176;9.486;2022-08-30T02:25:43;11.77;;;11.27;;
18138;SDS011;9195;53.176;9.486;2022-08-30T02:28:09;11.70;;;11.20;;
18138;SDS011;9195;53.176;9.486;2022-08-30T02:30:35;11.47;;;10.97;;
18138;SDS011;9195;53.176;9.486;2022-08-30T02:33:01;11.67;;;11.17;;
18138;SDS011;9195;53.176;9.486;2022-08-30T02:35:27;11.50;;;11.00;;
18138;SDS011;9195;53.176;9.486;2022-08-30T02:37:53;11.53;;;11.03;;
18138;SDS011;9195;53.176;9.486;2022-08-30T02:40:18;11.70;;;11.20;;
18138;SDS011;9195;53.176;9.486;2022-08-30T02:42:46;11.60;;;11.10;;
18138;SDS011;9195;53.176;9.486;2022-08-30T02:45:12;11.90;;;11.40;;
18138;SDS011;9195;53.176;9.486;2022-08-30T02:47:39;11.80;;;11.30;;
18138;SDS011;9195;53.176;9.486;2022-08-30T02:50:05;12.20;;;11.70;;
18138;SDS011;9195;53.176;9.486;2022-08-30T02:52:32;11.60;;;11.10;;
18138;SDS011;9195;53.176;9.486;2022-08-30T02:54:58;11.90;;;11.40;;
18138;SDS011;9195;53.176;9.486;2022-08-30T02:57:24;12.10;;;11.60;;
18138;SDS011;9195;53.176;9.486;2022-08-30T02:59:50;11.37;;;10.87;;
18138;SDS011;9195;53.176;9.486;2022-08-30T03:02:16;11.13;;;10.63;;
18138;SDS011;9195;53.176;9.486;2022-08-30T03:04:41;10.80;;;10.40;;
18138;SDS011;9195;53.176;9.486;2022-08-30T03:07:10;11.30;;;10.80;;
18138;SDS011;9195;53.176;9.486;2022-08-30T03:09:36;11.43;;;10.93;;
18138;SDS011;9195;53.176;9.486;2022-08-30T03:12:03;11.10;;;10.60;;
18138;SDS011;9195;53.176;9.486;2022-08-30T03:14:31;10.70;;;10.30;;
18138;SDS011;9195;53.176;9.486;2022-08-30T03:16:56;11.13;;;10.63;;
18138;SDS011;9195;53.176;9.486;2022-08-30T03:19:23;10.60;;;10.20;;
18138;SDS011;9195;53.176;9.486;2022-08-30T03:21:49;10.83;;;10.43;;
18138;SDS011;9195;53.176;9.486;2022-08-30T03:24:15;10.90;;;10.50;;
18138;SDS011;9195;53.176;9.486;2022-08-30T03:26:41;11.20;;;10.70;;
18138;SDS011;9195;53.176;9.486;2022-08-30T03:29:06;11.23;;;10.73;;
18138;SDS011;9195;53.176;9.486;2022-08-30T03:31:32;10.63;;;10.23;;
18138;SDS011;9195;53.176;9.486;2022-08-30T03:33:58;11.13;;;10.63;;
18138;SDS011;9195;53.176;9.486;2022-08-30T03:36:23;12.27;;;11.77;;
18138;SDS011;9195;53.176;9.486;2022-08-30T03:38:49;12.10;;;11.60;;
18138;SDS011;9195;53.176;9.486;2022-08-30T03:41:15;12.30;;;11.80;;
18138;SDS011;9195;53.176;9.486;2022-08-30T03:43:41;12.20;;;11.70;;
18138;SDS011;9195;53.176;9.486;2022-08-30T03:46:07;12.17;;;11.67;;
18138;SDS011;9195;53.176;9.486;2022-08-30T03:48:35;11.80;;;11.30;;
18138;SDS011;9195;53.176;9.486;2022-08-30T03:51:00;12.37;;;11.87;;
18138;SDS011;9195;53.176;9.486;2022-08-30T03:53:26;12.73;;;12.23;;
18138;SDS011;9195;53.176;9.486;2022-08-30T03:55:51;12.23;;;11.73;;
18138;SDS011;9195;53.176;9.486;2022-08-30T03:58:17;12.43;;;11.93;;
18138;SDS011;9195;53.176;9.486;2022-08-30T04:00:42;12.30;;;11.80;;
18138;SDS011;9195;53.176;9.486;2022-08-30T04:03:08;12.23;;;11.73;;
18138;SDS011;9195;53.176;9.486;2022-08-30T04:05:34;11.80;;;11.30;;
18138;SDS011;9195;53.176;9.486;2022-08-30T04:07:59;11.77;;;11.27;;
18138;SDS011;9195;53.176;9.486;2022-08-30T04:10:25;11.73;;;11.23;;
18138;SDS011;9195;53.176;9.486;2022-08-30T04:12:51;11.83;;;11.33;;
18138;SDS011;9195;53.176;9.486;2022-08-30T04:15:17;11.80;;;11.30;;
18138;SDS011;9195;53.176;9.486;2022-08-30T04:17:43;12.03;;;11.53;;
18138;SDS011;9195;53.176;9.486;2022-08-30T04:20:10;12.00;;;11.50;;
18138;SDS011;9195;53.176;9.486;2022-08-30T04:22:35;11.90;;;11.40;;
18138;SDS011;9195;53.176;9.486;2022-08-30T04:25:02;11.97;;;11.47;;
18138;SDS011;9195;53.176;9.486;2022-08-30T04:27:28;12.60;;;12.10;;
18138;SDS011;9195;53.176;9.486;2022-08-30T04:29:53;12.67;;;12.17;;
18138;SDS011;9195;53.176;9.486;2022-08-30T04:32:19;13.17;;;12.57;;
18138;SDS011;9195;53.176;9.486;2022-08-30T04:34:45;13.33;;;12.73;;
18138;SDS011;9195;53.176;9.486;2022-08-30T04:37:11;13.10;;;12.50;;
18138;SDS011;9195;53.176;9.486;2022-08-30T04:39:37;13.03;;;12.43;;
18138;SDS011;9195;53.176;9.486;2022-08-30T04:42:03;13.23;;;12.63;;
18138;SDS011;9195;53.176;9.486;2022-08-30T04:44:30;12.93;;;12.33;;
18138;SDS011;9195;53.176;9.486;2022-08-30T04:46:56;12.80;;;12.30;;
18138;SDS011;9195;53.176;9.486;2022-08-30T04:49:21;12.87;;;12.33;;
18138;SDS011;9195;53.176;9.486;2022-08-30T04:51:47;13.10;;;12.50;;
18138;SDS011;9195;53.176;9.486;2022-08-30T04:54:13;13.13;;;12.53;;
18138;SDS011;9195;53.176;9.486;2022-08-30T04:56:38;13.00;;;12.40;;
18138;SDS011;9195;53.176;9.486;2022-08-30T04:59:04;13.13;;;12.53;;
18138;SDS011;9195;53.176;9.486;2022-08-30T05:01:30;13.97;;;13.37;;
18138;SDS011;9195;53.176;9.486;2022-08-30T05:03:57;13.73;;;13.13;;
18138;SDS011;9195;53.176;9.486;2022-08-30T05:06:24;14.03;;;13.43;;
18138;SDS011;9195;53.176;9.486;2022-08-30T05:08:51;14.60;;;13.90;;
18138;SDS011;9195;53.176;9.486;2022-08-30T05:11:17;13.73;;;13.13;;
18138;SDS011;9195;53.176;9.486;2022-08-30T05:13:44;13.87;;;13.27;;
18138;SDS011;9195;53.176;9.486;2022-08-30T05:16:11;14.27;;;13.67;;
18138;SDS011;9195;53.176;9.486;2022-08-30T05:18:42;15.03;;;14.33;;
18138;SDS011;9195;53.176;9.486;2022-08-30T05:21:16;14.33;;;13.73;;
18138;SDS011;9195;53.176;9.486;2022-08-30T05:23:47;14.83;;;14.13;;
18138;SDS011;9195;53.176;9.486;2022-08-30T05:26:18;14.20;;;13.60;;
18138;SDS011;9195;53.176;9.486;2022-08-30T05:28:47;14.80;;;14.10;;
18138;SDS011;9195;53.176;9.486;2022-08-30T05:31:14;14.30;;;13.70;;
18138;SDS011;9195;53.176;9.486;2022-08-30T05:33:48;13.87;;;13.27;;
18138;SDS011;9195;53.176;9.486;2022-08-30T05:36:15;13.40;;;12.80;;
18138;SDS011;9195;53.176;9.486;2022-08-30T05:38:42;13.80;;;13.20;;
18138;SDS011;9195;53.176;9.486;2022-08-30T05:41:09;14.57;;;13.97;;
18138;SDS011;9195;53.176;9.486;2022-08-30T05:43:35;14.73;;;14.13;;
18138;SDS011;9195;53.176;9.486;2022-08-30T05:46:01;14.77;;;14.13;;
18138;SDS011;9195;53.176;9.486;2022-08-30T05:48:32;14.67;;;14.07;;
18138;SDS011;9195;53.176;9.486;2022-08-30T05:51:06;14.30;;;13.70;;
18138;SDS011;9195;53.176;9.486;2022-08-30T05:53:43;15.13;;;14.43;;
18138;SDS011;9195;53.176;9.486;2022-08-30T05:56:11;14.97;;;14.27;;
18138;SDS011;9195;53.176;9.486;2022-08-30T05:58:37;14.60;;;14.00;;
18138;SDS011;9195;53.176;9.486;2022-08-30T06:01:03;14.67;;;14.07;;
18138;SDS011;9195;53.176;9.486;2022-08-30T06:03:30;14.50;;;13.90;;
18138;SDS011;9195;53.176;9.486;2022-08-30T06:05:59;14.47;;;13.87;;
18138;SDS011;9195;53.176;9.486;2022-08-30T06:08:25;14.80;;;14.13;;
18138;SDS011;9195;53.176;9.486;2022-08-30T06:10:51;14.00;;;13.40;;
18138;SDS011;9195;53.176;9.486;2022-08-30T06:13:17;14.97;;;14.27;;
18138;SDS011;9195;53.176;9.486;2022-08-30T06:15:43;15.30;;;14.60;;
18138;SDS011;9195;53.176;9.486;2022-08-30T06:18:09;15.20;;;14.50;;
18138;SDS011;9195;53.176;9.486;2022-08-30T06:20:42;15.10;;;14.40;;
18138;SDS011;9195;53.176;9.486;2022-08-30T06:23:11;15.60;;;14.90;;
18138;SDS011;9195;53.176;9.486;2022-08-30T06:25:38;14.80;;;14.10;;
18138;SDS011;9195;53.176;9.486;2022-08-30T06:28:06;14.13;;;13.53;;
18138;SDS011;9195;53.176;9.486;2022-08-30T06:30:32;14.13;;;13.53;;
18138;SDS011;9195;53.176;9.486;2022-08-30T06:32:58;14.53;;;13.93;;
18138;SDS011;9195;53.176;9.486;2022-08-30T06:35:25;14.30;;;13.70;;
18138;SDS011;9195;53.176;9.486;2022-08-30T06:37:51;14.50;;;13.90;;
18138;SDS011;9195;53.176;9.486;2022-08-30T06:40:16;13.93;;;13.33;;
18138;SDS011;9195;53.176;9.486;2022-08-30T06:42:44;14.83;;;14.17;;
18138;SDS011;9195;53.176;9.486;2022-08-30T06:45:10;14.80;;;14.17;;
18138;SDS011;9195;53.176;9.486;2022-08-30T06:47:35;14.97;;;14.27;;
18138;SDS011;9195;53.176;9.486;2022-08-30T06:50:01;14.60;;;14.00;;
18138;SDS011;9195;53.176;9.486;2022-08-30T06:52:27;14.70;;;14.10;;
18138;SDS011;9195;53.176;9.486;2022-08-30T06:54:53;15.40;;;14.70;;
18138;SDS011;9195;53.176;9.486;2022-08-30T06:57:22;16.43;;;15.67;;
18138;SDS011;9195;53.176;9.486;2022-08-30T06:59:47;16.07;;;15.37;;
18138;SDS011;9195;53.176;9.486;2022-08-30T07:02:13;15.50;;;14.80;;
18138;SDS011;9195;53.176;9.486;2022-08-30T07:04:39;14.83;;;14.17;;
18138;SDS011;9195;53.176;9.486;2022-08-30T07:07:05;14.93;;;14.23;;
18138;SDS011;9195;53.176;9.486;2022-08-30T07:09:30;15.40;;;14.70;;
18138;SDS011;9195;53.176;9.486;2022-08-30T07:11:57;16.03;;;15.33;;
18138;SDS011;9195;53.176;9.486;2022-08-30T07:14:27;16.27;;;15.47;;
18138;SDS011;9195;53.176;9.486;2022-08-30T07:16:53;15.60;;;14.90;;
18138;SDS011;9195;53.176;9.486;2022-08-30T07:19:18;15.57;;;14.87;;
18138;SDS011;9195;53.176;9.486;2022-08-30T07:21:46;15.87;;;15.17;;
18138;SDS011;9195;53.176;9.486;2022-08-30T07:24:12;16.00;;;15.30;;
18138;SDS011;9195;53.176;9.486;2022-08-30T07:26:39;15.73;;;15.03;;
18138;SDS011;9195;53.176;9.486;2022-08-30T07:29:11;15.50;;;14.80;;
18138;SDS011;9195;53.176;9.486;2022-08-30T07:31:36;16.13;;;15.43;;
18138;SDS011;9195;53.176;9.486;2022-08-30T07:34:03;16.80;;;16.00;;
18138;SDS011;9195;53.176;9.486;2022-08-30T07:36:30;16.70;;;15.90;;
18138;SDS011;9195;53.176;9.486;2022-08-30T07:38:56;16.73;;;15.93;;
18138;SDS011;9195;53.176;9.486;2022-08-30T07:41:23;15.67;;;14.97;;
18138;SDS011;9195;53.176;9.486;2022-08-30T07:43:51;16.13;;;15.43;;
18138;SDS011;9195;53.176;9.486;2022-08-30T07:46:17;16.70;;;15.90;;
18138;SDS011;9195;53.176;9.486;2022-08-30T07:48:43;16.27;;;15.57;;
18138;SDS011;9195;53.176;9.486;2022-08-30T07:51:10;16.10;;;15.40;;
18138;SDS011;9195;53.176;9.486;2022-08-30T07:53:37;16.47;;;15.73;;
18138;SDS011;9195;53.176;9.486;2022-08-30T07:56:03;16.80;;;16.00;;
18138;SDS011;9195;53.176;9.486;2022-08-30T07:58:29;16.33;;;15.63;;
18138;SDS011;9195;53.176;9.486;2022-08-30T08:00:56;16.40;;;15.70;;
18138;SDS011;9195;53.176;9.486;2022-08-30T08:03:23;16.30;;;15.60;;
18138;SDS011;9195;53.176;9.486;2022-08-30T08:05:50;16.87;;;16.07;;
18138;SDS011;9195;53.176;9.486;2022-08-30T08:08:17;16.27;;;15.57;;
18138;SDS011;9195;53.176;9.486;2022-08-30T08:10:43;16.17;;;15.47;;
18138;SDS011;9195;53.176;9.486;2022-08-30T08:13:09;16.23;;;15.53;;
18138;SDS011;9195;53.176;9.486;2022-08-30T08:15:35;15.90;;;15.20;;
18138;SDS011;9195;53.176;9.486;2022-08-30T08:18:01;16.57;;;15.80;;
18138;SDS011;9195;53.176;9.486;2022-08-30T08:20:27;16.40;;;15.70;;
18138;SDS011;9195;53.176;9.486;2022-08-30T08:22:53;16.20;;;15.50;;
18138;SDS011;9195;53.176;9.486;2022-08-30T08:25:19;16.37;;;15.67;;
18138;SDS011;9195;53.176;9.486;2022-08-30T08:27:46;16.20;;;15.50;;
18138;SDS011;9195;53.176;9.486;2022-08-30T08:30:13;16.00;;;15.30;;
18138;SDS011;9195;53.176;9.486;2022-08-30T08:32:38;15.75;;;15.05;;
18138;SDS011;9195;53.176;9.486;2022-08-30T08:35:04;15.47;;;14.77;;
18138;SDS011;9195;53.176;9.486;2022-08-30T08:37:30;15.80;;;15.10;;
18138;SDS011;9195;53.176;9.486;2022-08-30T08:39:56;15.87;;;15.17;;
18138;SDS011;9195;53.176;9.486;2022-08-30T08:42:24;15.60;;;14.90;;
18138;SDS011;9195;53.176;9.486;2022-08-30T08:45:04;15.90;;;15.20;;
18138;SDS011;9195;53.176;9.486;2022-08-30T08:47:39;16.07;;;15.37;;
18138;SDS011;9195;53.176;9.486;2022-08-30T08:50:15;16.07;;;15.37;;
18138;SDS011;9195;53.176;9.486;2022-08-30T08:52:48;15.55;;;14.85;;
18138;SDS011;9195;53.176;9.486;2022-08-30T08:55:37;15.80;;;15.10;;
18138;SDS011;9195;53.176;9.486;2022-08-30T08:58:06;15.40;;;14.70;;
18138;SDS011;9195;53.176;9.486;2022-08-30T09:00:36;15.57;;;14.87;;
18138;SDS011;9195;53.176;9.486;2022-08-30T09:03:02;15.25;;;14.55;;
18138;SDS011;9195;53.176;9.486;2022-08-30T09:05:35;15.13;;;14.43;;
18138;SDS011;9195;53.176;9.486;2022-08-30T09:08:05;15.27;;;14.57;;
18138;SDS011;9195;53.176;9.486;2022-08-30T09:10:37;15.63;;;14.93;;
18138;SDS011;9195;53.176;9.486;2022-08-30T09:13:05;14.98;;;14.27;;
18138;SDS011;9195;53.176;9.486;2022-08-30T09:15:32;15.10;;;14.40;;
18138;SDS011;9195;53.176;9.486;2022-08-30T09:18:00;14.93;;;14.23;;
18138;SDS011;9195;53.176;9.486;2022-08-30T09:20:41;14.93;;;14.23;;
18138;SDS011;9195;53.176;9.486;2022-08-30T09:25:50;13.75;;;13.15;;
18138;SDS011;9195;53.176;9.486;2022-08-30T09:28:19;14.38;;;13.77;;
18138;SDS011;9195;53.176;9.486;2022-08-30T09:31:07;15.40;;;14.70;;
18138;SDS011;9195;53.176;9.486;2022-08-30T09:33:58;14.70;;;14.07;;
18138;SDS011;9195;53.176;9.486;2022-08-30T09:36:27;14.70;;;14.10;;
18138;SDS011;9195;53.176;9.486;2022-08-30T09:39:02;15.70;;;15.00;;
18138;SDS011;9195;53.176;9.486;2022-08-30T09:44:25;15.57;;;14.88;;
18138;SDS011;9195;53.176;9.486;2022-08-30T09:46:55;15.25;;;14.55;;
18138;SDS011;9195;53.176;9.486;2022-08-30T09:49:31;15.10;;;14.40;;
18138;SDS011;9195;53.176;9.486;2022-08-30T09:57:23;15.68;;;14.98;;
18138;SDS011;9195;53.176;9.486;2022-08-30T10:00:19;15.40;;;14.70;;
18138;SDS011;9195;53.176;9.486;2022-08-30T10:11:01;15.68;;;14.98;;
18138;SDS011;9195;53.176;9.486;2022-08-30T10:21:52;15.57;;;14.88;;
18138;SDS011;9195;53.176;9.486;2022-08-30T10:24:39;15.13;;;14.43;;
18138;SDS011;9195;53.176;9.486;2022-08-30T10:27:31;15.20;;;14.50;;
18138;SDS011;9195;53.176;9.486;2022-08-30T10:30:06;15.40;;;14.70;;
18138;SDS011;9195;53.176;9.486;2022-08-30T10:32:37;15.30;;;14.60;;
18138;SDS011;9195;53.176;9.486;2022-08-30T10:38:01;14.93;;;14.23;;
18138;SDS011;9195;53.176;9.486;2022-08-30T10:40:34;14.55;;;13.95;;
18138;SDS011;9195;53.176;9.486;2022-08-30T10:46:25;15.23;;;14.52;;
18138;SDS011;9195;53.176;9.486;2022-08-30T10:49:22;15.63;;;14.93;;
18138;SDS011;9195;53.176;9.486;2022-08-30T10:57:37;14.13;;;13.52;;
18138;SDS011;9195;53.176;9.486;2022-08-30T11:00:07;13.77;;;13.18;;
18138;SDS011;9195;53.176;9.486;2022-08-30T11:05:57;14.40;;;13.80;;
18138;SDS011;9195;53.176;9.486;2022-08-30T11:11:19;14.55;;;13.90;;
18138;SDS011;9195;53.176;9.486;2022-08-30T11:14:05;14.60;;;13.90;;
18138;SDS011;9195;53.176;9.486;2022-08-30T11:16:38;14.48;;;13.80;;
18138;SDS011;9195;53.176;9.486;2022-08-30T11:19:16;14.75;;;14.05;;
18138;SDS011;9195;53.176;9.486;2022-08-30T11:22:13;14.50;;;13.80;;
18138;SDS011;9195;53.176;9.486;2022-08-30T11:32:57;14.95;;;14.25;;
18138;SDS011;9195;53.176;9.486;2022-08-30T11:38:19;16.00;;;15.30;;
18138;SDS011;9195;53.176;9.486;2022-08-30T11:41:10;15.38;;;14.68;;
18138;SDS011;9195;53.176;9.486;2022-08-30T11:51:22;16.10;;;15.35;;
18138;SDS011;9195;53.176;9.486;2022-08-30T11:54:22;15.85;;;15.15;;
18138;SDS011;9195;53.176;9.486;2022-08-30T12:02:54;16.02;;;15.32;;
18138;SDS011;9195;53.176;9.486;2022-08-30T12:05:51;15.73;;;15.02;;
18138;SDS011;9195;53.176;9.486;2022-08-30T12:10:57;16.83;;;16.02;;
18138;SDS011;9195;53.176;9.486;2022-08-30T12:16:08;16.85;;;16.05;;
18138;SDS011;9195;53.176;9.486;2022-08-30T12:18:48;16.20;;;15.50;;
18138;SDS011;9195;53.176;9.486;2022-08-30T12:21:35;16.38;;;15.57;;
18138;SDS011;9195;53.176;9.486;2022-08-30T12:26:43;16.65;;;15.85;;
18138;SDS011;9195;53.176;9.486;2022-08-30T12:29:17;16.20;;;15.50;;
18138;SDS011;9195;53.176;9.486;2022-08-30T12:31:45;16.15;;;15.45;;
18138;SDS011;9195;53.176;9.486;2022-08-30T12:39:41;16.55;;;15.75;;
18138;SDS011;9195;53.176;9.486;2022-08-30T12:42:21;16.17;;;15.43;;
18138;SDS011;9195;53.176;9.486;2022-08-30T12:44:50;16.63;;;15.82;;
18138;SDS011;9195;53.176;9.486;2022-08-30T12:47:23;15.88;;;15.18;;
18138;SDS011;9195;53.176;9.486;2022-08-30T12:49:56;15.60;;;14.90;;
18138;SDS011;9195;53.176;9.486;2022-08-30T12:52:27;16.05;;;15.35;;
18138;SDS011;9195;53.176;9.486;2022-08-30T12:55:15;15.82;;;15.13;;
18138;SDS011;9195;53.176;9.486;2022-08-30T13:00:29;15.50;;;14.80;;
18138;SDS011;9195;53.176;9.486;2022-08-30T13:03:03;15.52;;;14.82;;
18138;SDS011;9195;53.176;9.486;2022-08-30T13:05:48;15.93;;;15.23;;
18138;SDS011;9195;53.176;9.486;2022-08-30T13:10:48;15.38;;;14.68;;
18138;SDS011;9195;53.176;9.486;2022-08-30T13:13:25;15.40;;;14.70;;
18138;SDS011;9195;53.176;9.486;2022-08-30T13:15:52;15.50;;;14.80;;
18138;SDS011;9195;53.176;9.486;2022-08-30T13:18:23;15.88;;;15.18;;
18138;SDS011;9195;53.176;9.486;2022-08-30T13:23:50;16.23;;;15.52;;
18138;SDS011;9195;53.176;9.486;2022-08-30T13:26:19;15.63;;;14.93;;
18138;SDS011;9195;53.176;9.486;2022-08-30T13:28:48;16.17;;;15.48;;
18138;SDS011;9195;53.176;9.486;2022-08-30T13:31:14;16.20;;;15.45;;
18138;SDS011;9195;53.176;9.486;2022-08-30T13:33:40;16.20;;;15.50;;
18138;SDS011;9195;53.176;9.486;2022-08-30T13:36:09;16.65;;;15.85;;
18138;SDS011;9195;53.176;9.486;2022-08-30T13:38:35;17.30;;;16.50;;
18138;SDS011;9195;53.176;9.486;2022-08-30T13:41:01;17.25;;;16.45;;
18138;SDS011;9195;53.176;9.486;2022-08-30T13:43:26;17.35;;;16.55;;
18138;SDS011;9195;53.176;9.486;2022-08-30T13:45:52;17.15;;;16.35;;
18138;SDS011;9195;53.176;9.486;2022-08-30T13:48:18;18.58;;;17.73;;
18138;SDS011;9195;53.176;9.486;2022-08-30T13:50:43;18.17;;;17.38;;
18138;SDS011;9195;53.176;9.486;2022-08-30T13:53:09;18.65;;;17.80;;
18138;SDS011;9195;53.176;9.486;2022-08-30T13:55:35;19.20;;;18.30;;
18138;SDS011;9195;53.176;9.486;2022-08-30T13:58:02;19.08;;;18.17;;
18138;SDS011;9195;53.176;9.486;2022-08-30T14:00:28;20.50;;;19.60;;
18138;SDS011;9195;53.176;9.486;2022-08-30T14:02:53;18.65;;;17.75;;
18138;SDS011;9195;53.176;9.486;2022-08-30T14:05:20;19.33;;;18.42;;
18138;SDS011;9195;53.176;9.486;2022-08-30T14:07:51;18.35;;;17.52;;
18138;SDS011;9195;53.176;9.486;2022-08-30T14:10:17;18.80;;;17.90;;
18138;SDS011;9195;53.176;9.486;2022-08-30T14:12:45;17.58;;;16.77;;
18138;SDS011;9195;53.176;9.486;2022-08-30T14:15:10;17.77;;;16.98;;
18138;SDS011;9195;53.176;9.486;2022-08-30T14:17:36;17.30;;;16.50;;
18138;SDS011;9195;53.176;9.486;2022-08-30T14:20:01;17.63;;;16.83;;
18138;SDS011;9195;53.176;9.486;2022-08-30T14:22:27;17.70;;;16.90;;
18138;SDS011;9195;53.176;9.486;2022-08-30T14:24:53;17.20;;;16.40;;
18138;SDS011;9195;53.176;9.486;2022-08-30T14:27:19;17.20;;;16.40;;
18138;SDS011;9195;53.176;9.486;2022-08-30T14:29:44;16.98;;;16.17;;
18138;SDS011;9195;53.176;9.486;2022-08-30T14:32:10;16.85;;;16.05;;
18138;SDS011;9195;53.176;9.486;2022-08-30T14:34:36;16.88;;;16.08;;
18138;SDS011;9195;53.176;9.486;2022-08-30T14:37:01;16.75;;;15.95;;
18138;SDS011;9195;53.176;9.486;2022-08-30T14:39:29;16.88;;;16.08;;
18138;SDS011;9195;53.176;9.486;2022-08-30T14:41:55;16.33;;;15.60;;
18138;SDS011;9195;53.176;9.486;2022-08-30T14:44:21;16.15;;;15.45;;
18138;SDS011;9195;53.176;9.486;2022-08-30T14:46:47;16.17;;;15.48;;
18138;SDS011;9195;53.176;9.486;2022-08-30T14:49:13;16.27;;;15.57;;
18138;SDS011;9195;53.176;9.486;2022-08-30T14:51:40;16.20;;;15.50;;
18138;SDS011;9195;53.176;9.486;2022-08-30T14:54:06;16.02;;;15.32;;
18138;SDS011;9195;53.176;9.486;2022-08-30T14:56:32;16.38;;;15.68;;
18138;SDS011;9195;53.176;9.486;2022-08-30T14:58:58;15.77;;;15.07;;
18138;SDS011;9195;53.176;9.486;2022-08-30T15:01:26;16.30;;;15.60;;
18138;SDS011;9195;53.176;9.486;2022-08-30T15:03:54;15.63;;;14.93;;
18138;SDS011;9195;53.176;9.486;2022-08-30T15:06:20;15.75;;;15.05;;
18138;SDS011;9195;53.176;9.486;2022-08-30T15:08:46;16.33;;;15.63;;
18138;SDS011;9195;53.176;9.486;2022-08-30T15:11:12;15.90;;;15.20;;
18138;SDS011;9195;53.176;9.486;2022-08-30T15:13:39;15.90;;;15.20;;
18138;SDS011;9195;53.176;9.486;2022-08-30T15:16:09;15.95;;;15.25;;
18138;SDS011;9195;53.176;9.486;2022-08-30T15:18:37;15.40;;;14.70;;
18138;SDS011;9195;53.176;9.486;2022-08-30T15:21:03;15.85;;;15.15;;
18138;SDS011;9195;53.176;9.486;2022-08-30T15:23:29;15.63;;;14.93;;
18138;SDS011;9195;53.176;9.486;2022-08-30T15:25:54;16.10;;;15.40;;
18138;SDS011;9195;53.176;9.486;2022-08-30T15:28:20;16.15;;;15.45;;
18138;SDS011;9195;53.176;9.486;2022-08-30T15:30:45;15.75;;;15.05;;
18138;SDS011;9195;53.176;9.486;2022-08-30T15:33:11;15.93;;;15.23;;
18138;SDS011;9195;53.176;9.486;2022-08-30T15:35:36;16.90;;;16.10;;
18138;SDS011;9195;53.176;9.486;2022-08-30T15:38:02;16.27;;;15.57;;
18138;SDS011;9195;53.176;9.486;2022-08-30T15:40:28;17.00;;;16.20;;
18138;SDS011;9195;53.176;9.486;2022-08-30T15:42:55;15.80;;;15.10;;
18138;SDS011;9195;53.176;9.486;2022-08-30T15:45:21;16.33;;;15.63;;
18138;SDS011;9195;53.176;9.486;2022-08-30T15:47:46;16.10;;;15.40;;
18138;SDS011;9195;53.176;9.486;2022-08-30T15:50:12;16.20;;;15.50;;
18138;SDS011;9195;53.176;9.486;2022-08-30T15:52:37;16.33;;;15.63;;
18138;SDS011;9195;53.176;9.486;2022-08-30T15:55:03;16.40;;;15.70;;
18138;SDS011;9195;53.176;9.486;2022-08-30T15:57:29;16.15;;;15.45;;
18138;SDS011;9195;53.176;9.486;2022-08-30T15:59:55;15.52;;;14.82;;
18138;SDS011;9195;53.176;9.486;2022-08-30T16:02:20;16.02;;;15.32;;
18138;SDS011;9195;53.176;9.486;2022-08-30T16:04:46;15.70;;;15.00;;
18138;SDS011;9195;53.176;9.486;2022-08-30T16:07:12;15.77;;;15.07;;
18138;SDS011;9195;53.176;9.486;2022-08-30T16:09:38;15.25;;;14.55;;
18138;SDS011;9195;53.176;9.486;2022-08-30T16:12:05;15.32;;;14.63;;